createdAt,value
2023-04-08T00:00:50.872Z,84.24
2023-04-08T00:03:19.075Z,82.48
2023-04-08T00:05:46.236Z,83.72
2023-04-08T00:08:13.871Z,83.81
2023-04-08T00:10:41.024Z,84.32
2023-04-08T00:13:07.967Z,85.33
2023-04-08T00:15:34.848Z,84.19
2023-04-08T00:18:02.311Z,84.75
2023-04-08T00:20:29.416Z,83.95
2023-04-08T00:22:56.318Z,85.65
2023-04-08T00:25:25.386Z,84.99
2023-04-08T00:27:53.108Z,85.22
2023-04-08T00:30:20.376Z,86.29
2023-04-08T00:32:47.309Z,86.58
2023-04-08T00:35:14.250Z,85.58
2023-04-08T00:37:41.794Z,85.67
2023-04-08T00:40:09.687Z,86.45
2023-04-08T00:42:36.901Z,86.17
2023-04-08T00:45:04.237Z,86.33
2023-04-08T00:47:31.592Z,87.11
2023-04-08T00:49:58.721Z,85.64
2023-04-08T00:52:25.983Z,86.28
2023-04-08T00:54:52.880Z,86.64
2023-04-08T00:57:20.132Z,86.56
2023-04-08T00:59:47.082Z,86.36
2023-04-08T01:02:19.717Z,86.47
2023-04-08T01:04:56.626Z,85.61
2023-04-08T01:07:32.121Z,86.57
2023-04-08T01:10:06.406Z,86.63
2023-04-08T01:12:41.499Z,87.55
2023-04-08T01:15:12.113Z,87.37
2023-04-08T01:17:39.499Z,88.42
2023-04-08T01:20:09.609Z,88.55
2023-04-08T01:23:00.716Z,88.62
2023-04-08T01:25:33.866Z,87.46
2023-04-08T01:28:05.041Z,87.84
2023-04-08T01:30:33.846Z,88.41
2023-04-08T01:33:03.195Z,88.51
2023-04-08T01:35:31.620Z,88.47
2023-04-08T01:38:00.201Z,87.61
2023-04-08T01:40:27.392Z,87.58
2023-04-08T01:42:57.513Z,88.24
2023-04-08T01:45:25.883Z,90.06
2023-04-08T01:47:53.738Z,89.97
2023-04-08T01:50:21.746Z,88.10
2023-04-08T01:52:50.414Z,89.60
2023-04-08T01:55:17.952Z,88.96
2023-04-08T01:57:51.066Z,88.77
2023-04-08T02:00:23.447Z,88.23
2023-04-08T02:02:51.802Z,90.62
2023-04-08T02:05:19.058Z,90.65
2023-04-08T02:07:48.409Z,90.61
2023-04-08T02:10:16.984Z,89.13
2023-04-08T02:12:45.103Z,90.48
2023-04-08T02:15:14.235Z,89.69
2023-04-08T02:18:01.601Z,89.60
2023-04-08T02:20:44.081Z,90.26
2023-04-08T02:23:21.569Z,90.45
2023-04-08T02:25:49.954Z,89.58
2023-04-08T02:28:19.435Z,91.48
2023-04-08T02:30:51.863Z,91.86
2023-04-08T02:33:22.301Z,92.14
2023-04-08T02:35:56.236Z,91.57
2023-04-08T02:38:24.500Z,91.91
2023-04-08T02:40:51.829Z,90.95
2023-04-08T02:43:18.752Z,90.20
2023-04-08T02:45:46.231Z,91.35
2023-04-08T02:48:13.199Z,90.97
2023-04-08T02:50:40.951Z,91.59
2023-04-08T02:53:09.758Z,92.37
2023-04-08T02:55:36.719Z,92.23
2023-04-08T02:58:03.732Z,91.74
2023-04-08T03:00:31.082Z,92.56
2023-04-08T03:02:58.162Z,91.82
2023-04-08T03:05:27.714Z,92.89
2023-04-08T03:07:54.710Z,92.78
2023-04-08T03:10:21.590Z,93.05
2023-04-08T03:12:48.766Z,91.90
2023-04-08T03:15:15.985Z,92.42
2023-04-08T03:17:42.896Z,93.46
2023-04-08T03:20:11.065Z,94.34
2023-04-08T03:22:37.932Z,94.63
2023-04-08T03:25:05.649Z,95.41
2023-04-08T03:27:32.560Z,95.91
2023-04-08T03:29:59.484Z,95.08
2023-04-08T03:32:26.530Z,94.08
2023-04-08T03:34:53.813Z,94.74
2023-04-08T03:37:20.706Z,94.72
2023-04-08T03:39:47.594Z,95.65
2023-04-08T03:42:14.545Z,94.83
2023-04-08T03:44:41.815Z,94.56
2023-04-08T03:47:08.741Z,93.88
2023-04-08T03:49:35.878Z,94.07
2023-04-08T03:52:03.026Z,94.59
2023-04-08T03:54:29.873Z,95.51
2023-04-08T03:56:56.781Z,95.42
2023-04-08T03:59:23.648Z,95.09
2023-04-08T04:01:51.616Z,94.51
2023-04-08T04:04:18.892Z,97.24
2023-04-08T04:06:45.998Z,97.69
2023-04-08T04:09:12.903Z,96.77
2023-04-08T04:11:39.776Z,96.25
2023-04-08T04:14:06.671Z,96.42
2023-04-08T04:16:33.748Z,96.34
2023-04-08T04:19:00.938Z,95.81
2023-04-08T04:21:27.941Z,97.51
2023-04-08T04:23:54.825Z,96.64
2023-04-08T04:26:21.842Z,96.61
2023-04-08T04:28:49.150Z,96.38
2023-04-08T04:31:26.571Z,96.44
2023-04-08T04:33:54.444Z,96.94
2023-04-08T04:36:21.383Z,96.26
2023-04-08T04:38:50.560Z,95.58
2023-04-08T04:41:17.999Z,96.93
2023-04-08T04:43:45.159Z,97.46
2023-04-08T04:46:12.267Z,96.42
2023-04-08T04:48:39.279Z,96.37
2023-04-08T04:51:07.780Z,96.44
2023-04-08T04:53:34.996Z,97.33
2023-04-08T04:56:02.432Z,95.63
2023-04-08T04:58:30.985Z,96.71
2023-04-08T05:00:58.516Z,98.92
2023-04-08T05:03:25.703Z,97.97
2023-04-08T05:05:54.638Z,96.45
2023-04-08T05:08:22.442Z,97.03
2023-04-08T05:10:52.649Z,96.34
2023-04-08T05:13:19.530Z,97.23
2023-04-08T05:15:46.968Z,97.84
2023-04-08T05:18:14.085Z,97.82
2023-04-08T05:20:41.212Z,97.74
2023-04-08T05:23:09.147Z,98.43
2023-04-08T05:25:36.397Z,98.51
2023-04-08T05:28:04.025Z,98.16
2023-04-08T05:30:31.252Z,97.35
2023-04-08T05:33:00.416Z,96.90
2023-04-08T05:35:28.708Z,97.79
2023-04-08T05:37:55.832Z,97.55
2023-04-08T05:40:22.807Z,99.32
2023-04-08T05:42:49.703Z,98.01
2023-04-08T05:45:16.626Z,100.00
2023-04-08T05:47:43.574Z,98.19
2023-04-08T05:50:11.615Z,98.83
2023-04-08T05:52:44.986Z,99.67
2023-04-08T05:55:14.460Z,98.37
2023-04-08T05:57:41.987Z,98.67
2023-04-08T06:00:11.373Z,100.00
2023-04-08T06:02:38.923Z,100.00
2023-04-08T06:05:06.991Z,100.00
2023-04-08T06:07:34.386Z,100.00
2023-04-08T06:10:01.591Z,100.00
2023-04-08T06:12:28.590Z,99.00
2023-04-08T06:14:56.600Z,98.47
2023-04-08T06:17:23.772Z,97.85
2023-04-08T06:19:50.853Z,97.09
2023-04-08T06:22:17.739Z,96.74
2023-04-08T06:24:48.749Z,96.44
2023-04-08T06:27:16.270Z,96.04
2023-04-08T06:29:43.518Z,95.65
2023-04-08T06:32:11.102Z,95.59
2023-04-08T06:34:38.483Z,95.13
2023-04-08T06:37:06.698Z,95.40
2023-04-08T06:39:34.187Z,95.12
2023-04-08T06:42:01.248Z,94.69
2023-04-08T06:44:28.294Z,94.59
2023-04-08T06:46:55.211Z,94.59
2023-04-08T06:49:22.178Z,94.43
2023-04-08T06:51:49.322Z,94.33
2023-04-08T06:54:16.199Z,94.53
2023-04-08T06:56:43.206Z,94.40
2023-04-08T06:59:10.079Z,93.28
2023-04-08T07:01:36.980Z,92.71
2023-04-08T07:04:04.175Z,91.89
2023-04-08T07:06:31.378Z,91.55
2023-04-08T07:08:58.257Z,90.02
2023-04-08T07:11:25.232Z,89.88
2023-04-08T07:13:52.752Z,90.09
2023-04-08T07:16:19.671Z,90.20
2023-04-08T07:18:47.883Z,90.01
2023-04-08T07:21:15.380Z,90.17
2023-04-08T07:23:42.296Z,90.14
2023-04-08T07:26:09.751Z,90.24
2023-04-08T07:28:36.677Z,90.46
2023-04-08T07:31:16.245Z,90.60
2023-04-08T07:33:44.688Z,90.71
2023-04-08T07:36:13.375Z,90.44
2023-04-08T07:38:41.067Z,90.22
2023-04-08T07:41:08.035Z,91.24
2023-04-08T07:43:36.588Z,91.33
2023-04-08T07:46:07.332Z,90.60
2023-04-08T07:48:35.560Z,89.39
2023-04-08T07:51:10.971Z,89.03
2023-04-08T07:53:39.617Z,87.93
2023-04-08T07:56:15.111Z,87.52
2023-04-08T07:58:43.007Z,86.83
2023-04-08T08:01:22.443Z,85.31
2023-04-08T08:03:51.839Z,84.43
2023-04-08T08:06:19.413Z,83.60
2023-04-08T08:08:46.532Z,82.85
2023-04-08T08:11:13.833Z,82.39
2023-04-08T08:13:40.821Z,81.89
2023-04-08T08:16:09.395Z,80.82
2023-04-08T08:18:37.103Z,80.33
2023-04-08T08:21:04.331Z,79.10
2023-04-08T08:23:31.680Z,78.36
2023-04-08T08:26:03.615Z,77.23
2023-04-08T08:28:30.549Z,77.64
2023-04-08T08:30:57.782Z,76.04
2023-04-08T08:33:26.232Z,74.73
2023-04-08T08:35:53.116Z,74.21
2023-04-08T08:38:20.247Z,73.78
2023-04-08T08:40:47.426Z,73.40
2023-04-08T08:43:14.626Z,73.54
2023-04-08T08:45:42.811Z,73.36
2023-04-08T08:48:10.067Z,72.47
2023-04-08T08:50:37.266Z,72.77
2023-04-08T08:53:04.447Z,72.58
2023-04-08T08:56:05.068Z,71.35
2023-04-08T08:58:22.623Z,71.90
2023-04-08T09:00:49.528Z,72.50
2023-04-08T09:03:19.901Z,72.55
2023-04-08T09:06:02.142Z,73.29
2023-04-08T09:08:34.345Z,73.00
2023-04-08T09:11:27.508Z,73.06
2023-04-08T09:13:54.527Z,72.65
2023-04-08T09:16:23.541Z,72.51
2023-04-08T09:18:50.707Z,71.41
2023-04-08T09:21:18.679Z,71.17
2023-04-08T09:23:49.443Z,69.93
2023-04-08T09:26:23.169Z,69.08
2023-04-08T09:29:24.964Z,68.11
2023-04-08T09:31:58.408Z,67.73
2023-04-08T09:34:27.740Z,67.68
2023-04-08T09:36:56.364Z,66.75
2023-04-08T09:39:24.061Z,66.87
2023-04-08T09:41:52.975Z,65.71
2023-04-08T09:44:22.078Z,65.26
2023-04-08T09:46:52.912Z,64.62
2023-04-08T09:49:26.151Z,61.95
2023-04-08T09:52:12.309Z,61.65
2023-04-08T09:55:04.721Z,59.75
2023-04-08T09:57:44.746Z,60.01
2023-04-08T10:00:14.802Z,59.25
2023-04-08T10:03:13.579Z,57.41
2023-04-08T10:05:42.634Z,56.53
2023-04-08T10:08:10.739Z,55.76
2023-04-08T10:10:41.036Z,54.72
2023-04-08T10:13:08.833Z,54.86
2023-04-08T10:15:43.434Z,54.98
2023-04-08T10:18:10.208Z,54.46
2023-04-08T10:20:37.151Z,55.33
2023-04-08T10:23:05.707Z,54.99
2023-04-08T10:25:34.807Z,54.56
2023-04-08T10:28:23.087Z,55.02
2023-04-08T10:30:52.362Z,52.92
2023-04-08T10:33:29.264Z,51.11
2023-04-08T10:36:12.430Z,47.93
2023-04-08T10:38:42.790Z,48.04
2023-04-08T10:41:14.607Z,48.46
2023-04-08T10:43:41.546Z,47.89
2023-04-08T10:46:12.223Z,47.60
2023-04-08T10:48:39.287Z,46.65
2023-04-08T10:51:06.445Z,45.02
2023-04-08T10:53:40.153Z,43.54
2023-04-08T10:56:16.419Z,44.09
2023-04-08T10:58:52.081Z,42.59
2023-04-08T11:01:20.178Z,43.03
2023-04-08T11:03:47.276Z,43.08
2023-04-08T11:06:14.511Z,43.87
2023-04-08T11:08:41.875Z,43.75
2023-04-08T11:11:11.975Z,43.88
2023-04-08T11:13:52.991Z,43.42
2023-04-08T11:16:23.090Z,42.94
2023-04-08T11:18:51.584Z,43.02
2023-04-08T11:21:18.663Z,43.32
2023-04-08T11:23:45.740Z,42.91
2023-04-08T11:26:15.767Z,43.27
2023-04-08T11:28:43.606Z,44.09
2023-04-08T11:31:11.213Z,44.51
2023-04-08T11:33:39.147Z,44.95
2023-04-08T11:36:06.475Z,43.38
2023-04-08T11:38:33.486Z,43.96
2023-04-08T11:41:00.738Z,44.53
2023-04-08T11:43:28.840Z,44.16
2023-04-08T11:45:56.030Z,44.07
2023-04-08T11:48:24.078Z,43.47
2023-04-08T11:51:09.421Z,43.55
2023-04-08T11:53:39.111Z,42.89
2023-04-08T11:56:20.082Z,42.84
2023-04-08T11:58:48.028Z,42.36
2023-04-08T12:01:15.512Z,42.23
2023-04-08T12:04:02.668Z,42.91
2023-04-08T12:06:29.852Z,42.70
2023-04-08T12:08:57.112Z,42.49
2023-04-08T12:11:25.028Z,43.08
2023-04-08T12:13:53.116Z,42.87
2023-04-08T12:16:21.038Z,43.03
2023-04-08T12:18:48.144Z,42.46
2023-04-08T12:21:15.098Z,42.82
2023-04-08T12:23:42.311Z,42.83
2023-04-08T12:26:09.417Z,42.31
2023-04-08T12:28:36.642Z,42.78
2023-04-08T12:31:04.132Z,41.97
2023-04-08T12:33:31.818Z,41.80
2023-04-08T12:35:59.593Z,42.05
2023-04-08T12:38:27.520Z,41.78
2023-04-08T12:40:55.553Z,41.84
2023-04-08T12:43:23.980Z,41.93
2023-04-08T12:45:52.174Z,41.81
2023-04-08T12:48:19.823Z,41.52
2023-04-08T12:50:46.786Z,41.69
2023-04-08T12:53:13.667Z,41.93
2023-04-08T12:55:41.881Z,41.34
2023-04-08T12:58:09.558Z,41.49
2023-04-08T13:00:39.260Z,41.22
2023-04-08T13:03:06.655Z,40.70
2023-04-08T13:05:43.335Z,41.25
2023-04-08T13:08:14.852Z,41.02
2023-04-08T13:10:42.918Z,41.29
2023-04-08T13:13:10.000Z,40.74
2023-04-08T13:15:37.192Z,39.93
2023-04-08T13:18:05.277Z,39.63
2023-04-08T13:20:32.294Z,39.40
2023-04-08T13:23:01.175Z,39.81
2023-04-08T13:25:28.077Z,40.56
2023-04-08T13:27:54.932Z,40.01
2023-04-08T13:30:21.847Z,40.84
2023-04-08T13:32:48.912Z,40.63
2023-04-08T13:35:16.160Z,40.25
2023-04-08T13:37:43.062Z,40.43
2023-04-08T13:40:10.571Z,39.92
2023-04-08T13:42:37.757Z,39.46
2023-04-08T13:45:05.399Z,39.20
2023-04-08T13:47:32.425Z,39.78
2023-04-08T13:49:59.297Z,39.35
2023-04-08T13:52:26.219Z,39.28
2023-04-08T13:54:53.463Z,39.66
2023-04-08T13:57:20.576Z,40.24
2023-04-08T13:59:47.471Z,39.85
2023-04-08T14:02:14.421Z,40.13
2023-04-08T14:04:41.361Z,40.30
2023-04-08T14:07:08.459Z,40.61
2023-04-08T14:09:36.087Z,40.56
2023-04-08T14:12:03.027Z,39.39
2023-04-08T14:14:30.080Z,38.98
2023-04-08T14:16:57.282Z,39.00
2023-04-08T14:19:24.424Z,38.90
2023-04-08T14:21:51.565Z,38.87
2023-04-08T14:24:18.602Z,38.44
2023-04-08T14:26:45.830Z,39.12
2023-04-08T14:29:12.772Z,38.74
2023-04-08T14:31:39.720Z,39.16
2023-04-08T14:34:06.769Z,39.10
2023-04-08T14:36:34.046Z,38.85
2023-04-08T14:39:01.185Z,39.10
2023-04-08T14:41:28.133Z,39.53
2023-04-08T14:43:55.365Z,39.54
2023-04-08T14:46:22.645Z,39.18
2023-04-08T14:48:49.899Z,39.43
2023-04-08T14:51:17.085Z,39.38
2023-04-08T14:53:44.048Z,39.18
2023-04-08T14:56:11.508Z,39.02
2023-04-08T14:58:38.484Z,38.74
2023-04-08T15:01:05.471Z,38.84
2023-04-08T15:03:32.655Z,38.77
2023-04-08T15:06:00.078Z,37.92
2023-04-08T15:08:27.147Z,38.80
2023-04-08T15:10:54.258Z,38.66
2023-04-08T15:13:21.245Z,39.08
2023-04-08T15:15:48.498Z,39.23
2023-04-08T15:18:15.706Z,39.12
2023-04-08T15:20:42.731Z,39.14
2023-04-08T15:23:09.999Z,39.21
2023-04-08T15:25:36.974Z,39.43
2023-04-08T15:28:03.926Z,39.92
2023-04-08T15:30:35.661Z,40.11
2023-04-08T15:33:06.052Z,40.37
2023-04-08T15:35:33.987Z,40.37
2023-04-08T15:38:01.275Z,40.17
2023-04-08T15:40:28.365Z,40.05
2023-04-08T15:42:56.245Z,40.20
2023-04-08T15:45:23.252Z,39.45
2023-04-08T15:47:50.817Z,40.11
2023-04-08T15:50:17.841Z,40.36
2023-04-08T15:52:45.410Z,40.39
2023-04-08T15:55:12.496Z,40.31
2023-04-08T15:57:39.575Z,40.92
2023-04-08T16:00:11.327Z,40.55
2023-04-08T16:02:39.038Z,40.73
2023-04-08T16:05:06.762Z,40.85
2023-04-08T16:07:33.616Z,40.85
2023-04-08T16:10:00.895Z,40.08
2023-04-08T16:12:27.793Z,39.48
2023-04-08T16:14:55.098Z,39.65
2023-04-08T16:17:22.209Z,39.78
2023-04-08T16:19:51.847Z,39.54
2023-04-08T16:22:19.103Z,39.69
2023-04-08T16:24:46.478Z,39.73
2023-04-08T16:27:13.398Z,39.98
2023-04-08T16:29:41.061Z,39.93
2023-04-08T16:32:09.209Z,39.82
2023-04-08T16:34:36.402Z,39.51
2023-04-08T16:37:03.385Z,39.63
2023-04-08T16:39:30.398Z,39.70
2023-04-08T16:41:57.449Z,39.85
2023-04-08T16:44:24.365Z,40.40
2023-04-08T16:46:51.625Z,40.65
2023-04-08T16:49:18.960Z,40.38
2023-04-08T16:51:45.868Z,40.10
2023-04-08T16:54:12.965Z,40.55
2023-04-08T16:56:44.569Z,40.60
2023-04-08T16:59:12.890Z,40.78
2023-04-08T17:01:40.205Z,40.78
2023-04-08T17:04:07.643Z,40.83
2023-04-08T17:06:36.161Z,41.28
2023-04-08T17:09:04.186Z,41.55
2023-04-08T17:11:31.481Z,41.40
2023-04-08T17:13:58.878Z,41.69
2023-04-08T17:16:25.877Z,41.64
2023-04-08T17:18:53.005Z,41.81
2023-04-08T17:21:20.419Z,41.61
2023-04-08T17:23:47.390Z,41.80
2023-04-08T17:26:14.995Z,42.34
2023-04-08T17:28:42.007Z,42.32
2023-04-08T17:31:10.001Z,42.77
2023-04-08T17:33:37.094Z,42.87
2023-04-08T17:36:04.270Z,43.30
2023-04-08T17:38:31.456Z,43.16
2023-04-08T17:40:58.415Z,43.20
2023-04-08T17:43:25.444Z,43.38
2023-04-08T17:45:52.339Z,43.17
2023-04-08T17:48:19.224Z,43.33
2023-04-08T17:50:46.439Z,43.93
2023-04-08T17:53:13.294Z,43.85
2023-04-08T17:55:40.152Z,44.17
2023-04-08T17:58:07.673Z,44.17
2023-04-08T18:00:34.548Z,44.54
2023-04-08T18:03:01.709Z,44.68
2023-04-08T18:05:30.288Z,44.84
2023-04-08T18:07:58.480Z,44.94
2023-04-08T18:10:25.583Z,45.21
2023-04-08T18:13:03.757Z,45.04
2023-04-08T18:15:37.711Z,45.10
2023-04-08T18:18:04.982Z,45.10
2023-04-08T18:20:36.446Z,45.69
2023-04-08T18:23:04.878Z,45.98
2023-04-08T18:25:32.721Z,45.75
2023-04-08T18:27:59.912Z,45.81
2023-04-08T18:30:26.933Z,46.29
2023-04-08T18:32:53.927Z,46.36
2023-04-08T18:35:21.400Z,46.68
2023-04-08T18:37:48.308Z,46.74
2023-04-08T18:40:15.883Z,46.87
2023-04-08T18:42:42.757Z,47.10
2023-04-08T18:45:09.950Z,47.45
2023-04-08T18:47:38.013Z,47.30
2023-04-08T18:50:05.553Z,47.78
2023-04-08T18:52:33.225Z,47.97
2023-04-08T18:55:00.301Z,48.06
2023-04-08T18:57:27.779Z,48.25
2023-04-08T18:59:54.639Z,48.44
2023-04-08T19:02:23.058Z,48.53
2023-04-08T19:04:50.000Z,48.86
2023-04-08T19:07:17.555Z,48.92
2023-04-08T19:09:44.408Z,49.00
2023-04-08T19:12:11.243Z,49.54
2023-04-08T19:14:38.237Z,49.68
2023-04-08T19:17:05.531Z,50.11
2023-04-08T19:19:32.883Z,50.18
2023-04-08T19:22:02.910Z,50.35
2023-04-08T19:24:29.826Z,50.68
2023-04-08T19:26:56.908Z,50.98
2023-04-08T19:29:24.697Z,51.02
2023-04-08T19:31:51.862Z,51.36
2023-04-08T19:34:18.711Z,51.90
2023-04-08T19:36:45.777Z,52.04
2023-04-08T19:39:12.854Z,52.71
2023-04-08T19:41:39.795Z,53.05
2023-04-08T19:44:06.804Z,53.41
2023-04-08T19:46:34.237Z,53.97
2023-04-08T19:49:01.711Z,54.64
2023-04-08T19:51:29.537Z,55.35
2023-04-08T19:53:56.593Z,55.67
2023-04-08T19:56:23.637Z,56.14
2023-04-08T19:58:50.949Z,56.78
2023-04-08T20:01:18.527Z,56.86
2023-04-08T20:03:50.751Z,57.42
2023-04-08T20:06:18.334Z,57.64
2023-04-08T20:08:45.924Z,57.87
2023-04-08T20:11:13.895Z,57.92
2023-04-08T20:13:40.859Z,58.50
2023-04-08T20:16:07.994Z,58.70
2023-04-08T20:18:34.945Z,59.34
2023-04-08T20:21:02.000Z,59.42
2023-04-08T20:23:28.942Z,59.36
2023-04-08T20:25:56.858Z,59.25
2023-04-08T20:28:24.397Z,59.59
2023-04-08T20:30:52.179Z,59.78
2023-04-08T20:33:19.422Z,60.15
2023-04-08T20:35:47.051Z,60.17
2023-04-08T20:38:14.842Z,60.24
2023-04-08T20:40:45.728Z,60.76
2023-04-08T20:43:12.972Z,61.00
2023-04-08T20:45:39.843Z,61.31
2023-04-08T20:48:07.627Z,61.61
2023-04-08T20:50:35.238Z,61.63
2023-04-08T20:53:02.188Z,61.96
2023-04-08T20:55:29.145Z,62.73
2023-04-08T20:57:56.037Z,63.00
2023-04-08T21:00:23.071Z,63.17
2023-04-08T21:02:51.127Z,63.51
2023-04-08T21:05:18.271Z,63.41
2023-04-08T21:07:45.330Z,64.16
2023-04-08T21:10:16.077Z,63.95
2023-04-08T21:12:43.591Z,64.33
2023-04-08T21:15:11.320Z,64.63
2023-04-08T21:17:38.691Z,65.08
2023-04-08T21:20:06.834Z,65.32
2023-04-08T21:22:33.787Z,65.42
2023-04-08T21:25:00.863Z,65.46
2023-04-08T21:27:29.440Z,65.71
2023-04-08T21:29:56.727Z,65.90
2023-04-08T21:32:23.840Z,66.28
2023-04-08T21:34:54.444Z,66.45
2023-04-08T21:37:21.509Z,66.43
2023-04-08T21:39:48.694Z,66.42
2023-04-08T21:42:15.665Z,67.13
2023-04-08T21:44:42.827Z,66.93
2023-04-08T21:47:09.690Z,67.53
2023-04-08T21:49:36.615Z,67.85
2023-04-08T21:52:05.056Z,68.25
2023-04-08T21:54:31.982Z,68.92
2023-04-08T21:56:59.356Z,69.07
2023-04-08T21:59:27.939Z,69.30
2023-04-08T22:01:55.147Z,69.65
2023-04-08T22:04:22.091Z,69.84
2023-04-08T22:06:49.800Z,69.99
2023-04-08T22:09:17.227Z,70.07
2023-04-08T22:11:44.178Z,70.04
2023-04-08T22:14:11.389Z,70.56
2023-04-08T22:16:38.633Z,70.80
2023-04-08T22:19:06.101Z,71.53
2023-04-08T22:21:33.123Z,71.68
2023-04-08T22:24:00.148Z,71.81
2023-04-08T22:26:27.841Z,72.45
2023-04-08T22:28:55.015Z,72.90
2023-04-08T22:31:22.442Z,73.94
2023-04-08T22:33:49.450Z,74.22
2023-04-08T22:36:16.329Z,74.84
2023-04-08T22:38:43.476Z,75.09
2023-04-08T22:41:21.036Z,75.42
2023-04-08T22:43:48.961Z,76.05
2023-04-08T22:46:18.509Z,76.18
2023-04-08T22:48:46.269Z,76.93
2023-04-08T22:51:13.811Z,76.66
2023-04-08T22:53:40.840Z,76.84
2023-04-08T22:56:07.825Z,77.20
2023-04-08T22:58:34.722Z,77.37
2023-04-08T23:01:02.704Z,77.83
2023-04-08T23:03:29.840Z,78.67
2023-04-08T23:05:56.770Z,78.81
2023-04-08T23:08:23.718Z,78.97
2023-04-08T23:10:50.735Z,79.57
2023-04-08T23:13:17.602Z,79.77
2023-04-08T23:15:44.880Z,80.54
2023-04-08T23:18:11.930Z,80.57
2023-04-08T23:20:38.806Z,80.80
2023-04-08T23:23:05.648Z,81.96
2023-04-08T23:25:36.480Z,82.03
2023-04-08T23:28:03.708Z,81.76
2023-04-08T23:30:30.624Z,82.19
2023-04-08T23:32:57.590Z,82.43
2023-04-08T23:35:24.487Z,82.91
2023-04-08T23:37:51.519Z,82.92
2023-04-08T23:40:18.601Z,83.26
2023-04-08T23:42:45.612Z,83.26
2023-04-08T23:45:12.551Z,83.55
2023-04-08T23:47:39.829Z,83.86
2023-04-08T23:50:08.265Z,84.44
2023-04-08T23:52:35.598Z,84.01
2023-04-08T23:55:02.503Z,84.14
2023-04-08T23:57:29.387Z,84.28
2023-04-08T23:59:57.755Z,84.42
